sensor_id;sensor_type;location;lat;lon;timestamp;temperature;humidity
52381;DHT22;38310;52.796;6.942;2022-11-14T00:01:08;6.60;99.90
52381;DHT22;38310;52.796;6.942;2022-11-14T00:03:34;6.70;99.90
52381;DHT22;38310;52.796;6.942;2022-11-14T00:06:04;6.70;99.90
52381;DHT22;38310;52.796;6.942;2022-11-14T00:08:30;6.70;99.90
52381;DHT22;38310;52.796;6.942;2022-11-14T00:10:56;7.00;99.90
52381;DHT22;38310;52.796;6.942;2022-11-14T00:13:22;6.70;99.90
52381;DHT22;38310;52.796;6.942;2022-11-14T00:15:49;6.60;99.90
52381;DHT22;38310;52.796;6.942;2022-11-14T00:18:16;6.00;99.90
52381;DHT22;38310;52.796;6.942;2022-11-14T00:20:42;6.60;99.90
52381;DHT22;38310;52.796;6.942;2022-11-14T00:23:07;6.60;99.90
52381;DHT22;38310;52.796;6.942;2022-11-14T00:25:33;6.50;99.90
52381;DHT22;38310;52.796;6.942;2022-11-14T00:27:59;6.60;99.90
52381;DHT22;38310;52.796;6.942;2022-11-14T00:30:26;6.60;99.90
52381;DHT22;38310;52.796;6.942;2022-11-14T00:32:52;6.60;99.90
52381;DHT22;38310;52.796;6.942;2022-11-14T00:35:17;6.50;99.90
52381;DHT22;38310;52.796;6.942;2022-11-14T00:37:43;6.50;99.90
52381;DHT22;38310;52.796;6.942;2022-11-14T00:40:09;6.60;99.90
52381;DHT22;38310;52.796;6.942;2022-11-14T00:42:35;6.40;99.90
52381;DHT22;38310;52.796;6.942;2022-11-14T00:45:01;6.40;99.90
52381;DHT22;38310;52.796;6.942;2022-11-14T00:47:26;6.70;99.90
52381;DHT22;38310;52.796;6.942;2022-11-14T00:49:52;6.40;99.90
52381;DHT22;38310;52.796;6.942;2022-11-14T00:52:18;6.40;99.90
52381;DHT22;38310;52.796;6.942;2022-11-14T00:54:43;6.40;99.90
52381;DHT22;38310;52.796;6.942;2022-11-14T00:57:09;6.30;99.90
52381;DHT22;38310;52.796;6.942;2022-11-14T00:59:36;6.30;99.90
52381;DHT22;38310;52.796;6.942;2022-11-14T01:02:02;6.30;99.90
52381;DHT22;38310;52.796;6.942;2022-11-14T01:04:27;6.20;99.90
52381;DHT22;38310;52.796;6.942;2022-11-14T01:06:53;6.20;99.90
52381;DHT22;38310;52.796;6.942;2022-11-14T01:09:19;6.20;99.90
52381;DHT22;38310;52.796;6.942;2022-11-14T01:11:44;6.40;99.90
52381;DHT22;38310;52.796;6.942;2022-11-14T01:14:10;7.00;99.90
52381;DHT22;38310;52.796;6.942;2022-11-14T01:16:36;6.10;99.90
52381;DHT22;38310;52.796;6.942;2022-11-14T01:19:02;6.00;99.90
52381;DHT22;38310;52.796;6.942;2022-11-14T01:21:43;6.40;99.90
52381;DHT22;38310;52.796;6.942;2022-11-14T01:24:09;6.00;99.90
52381;DHT22;38310;52.796;6.942;2022-11-14T01:26:34;5.90;99.90
52381;DHT22;38310;52.796;6.942;2022-11-14T01:29:00;5.90;99.90
52381;DHT22;38310;52.796;6.942;2022-11-14T01:31:26;6.20;99.90
52381;DHT22;38310;52.796;6.942;2022-11-14T01:33:52;5.80;99.90
52381;DHT22;38310;52.796;6.942;2022-11-14T01:36:19;5.80;99.90
52381;DHT22;38310;52.796;6.942;2022-11-14T01:38:46;5.80;99.90
52381;DHT22;38310;52.796;6.942;2022-11-14T01:41:13;5.80;99.90
52381;DHT22;38310;52.796;6.942;2022-11-14T01:43:41;5.80;99.90
52381;DHT22;38310;52.796;6.942;2022-11-14T01:46:35;5.80;99.90
52381;DHT22;38310;52.796;6.942;2022-11-14T01:51:48;5.80;99.90
52381;DHT22;38310;52.796;6.942;2022-11-14T01:54:22;5.90;99.90
52381;DHT22;38310;52.796;6.942;2022-11-14T01:56:55;5.70;99.90
52381;DHT22;38310;52.796;6.942;2022-11-14T01:59:31;6.20;99.90
52381;DHT22;38310;52.796;6.942;2022-11-14T02:02:02;5.80;99.90
52381;DHT22;38310;52.796;6.942;2022-11-14T02:04:33;5.80;99.90
52381;DHT22;38310;52.796;6.942;2022-11-14T02:07:02;5.80;99.90
52381;DHT22;38310;52.796;6.942;2022-11-14T02:09:33;6.00;99.90
52381;DHT22;38310;52.796;6.942;2022-11-14T02:12:02;6.10;99.90
52381;DHT22;38310;52.796;6.942;2022-11-14T02:14:29;5.90;99.90
52381;DHT22;38310;52.796;6.942;2022-11-14T02:16:55;5.90;99.90
52381;DHT22;38310;52.796;6.942;2022-11-14T02:19:20;5.90;99.90
52381;DHT22;38310;52.796;6.942;2022-11-14T02:21:46;5.90;99.90
52381;DHT22;38310;52.796;6.942;2022-11-14T02:24:12;5.90;99.90
52381;DHT22;38310;52.796;6.942;2022-11-14T02:26:39;6.20;99.90
52381;DHT22;38310;52.796;6.942;2022-11-14T02:29:07;6.00;99.90
52381;DHT22;38310;52.796;6.942;2022-11-14T02:31:33;6.00;99.90
52381;DHT22;38310;52.796;6.942;2022-11-14T02:33:59;6.10;99.90
52381;DHT22;38310;52.796;6.942;2022-11-14T02:36:25;6.90;99.90
52381;DHT22;38310;52.796;6.942;2022-11-14T02:38:51;6.10;99.90
52381;DHT22;38310;52.796;6.942;2022-11-14T02:41:17;6.10;99.90
52381;DHT22;38310;52.796;6.942;2022-11-14T02:43:42;6.10;99.90
52381;DHT22;38310;52.796;6.942;2022-11-14T02:46:18;6.10;99.90
52381;DHT22;38310;52.796;6.942;2022-11-14T02:48:43;6.10;99.90
52381;DHT22;38310;52.796;6.942;2022-11-14T02:51:09;6.10;99.90
52381;DHT22;38310;52.796;6.942;2022-11-14T02:53:35;6.30;99.90
52381;DHT22;38310;52.796;6.942;2022-11-14T02:56:00;6.10;99.90
52381;DHT22;38310;52.796;6.942;2022-11-14T02:58:26;6.20;99.90
52381;DHT22;38310;52.796;6.942;2022-11-14T03:00:52;6.20;99.90
52381;DHT22;38310;52.796;6.942;2022-11-14T03:03:17;6.10;99.90
52381;DHT22;38310;52.796;6.942;2022-11-14T03:05:43;6.30;99.90
52381;DHT22;38310;52.796;6.942;2022-11-14T03:08:08;6.20;99.90
52381;DHT22;38310;52.796;6.942;2022-11-14T03:10:34;6.20;99.90
52381;DHT22;38310;52.796;6.942;2022-11-14T03:13:00;6.20;99.90
52381;DHT22;38310;52.796;6.942;2022-11-14T03:15:25;6.10;99.90
52381;DHT22;38310;52.796;6.942;2022-11-14T03:17:51;6.70;99.90
52381;DHT22;38310;52.796;6.942;2022-11-14T03:20:17;6.40;99.90
52381;DHT22;38310;52.796;6.942;2022-11-14T03:22:43;6.20;99.90
52381;DHT22;38310;52.796;6.942;2022-11-14T03:25:09;6.20;99.90
52381;DHT22;38310;52.796;6.942;2022-11-14T03:27:34;6.20;99.90
52381;DHT22;38310;52.796;6.942;2022-11-14T03:30:00;6.20;99.90
52381;DHT22;38310;52.796;6.942;2022-11-14T03:32:26;6.20;99.90
52381;DHT22;38310;52.796;6.942;2022-11-14T03:34:51;6.30;99.90
52381;DHT22;38310;52.796;6.942;2022-11-14T03:37:17;6.20;99.90
52381;DHT22;38310;52.796;6.942;2022-11-14T03:39:43;6.30;99.90
52381;DHT22;38310;52.796;6.942;2022-11-14T03:42:08;6.30;99.90
52381;DHT22;38310;52.796;6.942;2022-11-14T03:44:34;6.60;99.90
52381;DHT22;38310;52.796;6.942;2022-11-14T03:47:00;6.60;99.90
52381;DHT22;38310;52.796;6.942;2022-11-14T03:49:26;6.30;99.90
52381;DHT22;38310;52.796;6.942;2022-11-14T03:51:51;6.20;99.90
52381;DHT22;38310;52.796;6.942;2022-11-14T03:54:17;7.20;99.90
52381;DHT22;38310;52.796;6.942;2022-11-14T03:56:43;6.30;99.90
52381;DHT22;38310;52.796;6.942;2022-11-14T03:59:08;6.30;99.90
52381;DHT22;38310;52.796;6.942;2022-11-14T04:01:34;6.30;99.90
52381;DHT22;38310;52.796;6.942;2022-11-14T04:04:00;6.30;99.90
52381;DHT22;38310;52.796;6.942;2022-11-14T04:06:25;6.30;99.90
52381;DHT22;38310;52.796;6.942;2022-11-14T04:08:51;6.50;99.90
52381;DHT22;38310;52.796;6.942;2022-11-14T04:11:18;5.20;99.90
52381;DHT22;38310;52.796;6.942;2022-11-14T04:13:43;6.30;99.90
52381;DHT22;38310;52.796;6.942;2022-11-14T04:16:09;6.30;99.90
52381;DHT22;38310;52.796;6.942;2022-11-14T04:18:35;6.30;99.90
52381;DHT22;38310;52.796;6.942;2022-11-14T04:21:00;6.50;99.90
52381;DHT22;38310;52.796;6.942;2022-11-14T04:23:26;6.30;99.90
52381;DHT22;38310;52.796;6.942;2022-11-14T04:25:52;6.40;99.90
52381;DHT22;38310;52.796;6.942;2022-11-14T04:28:17;6.30;99.90
52381;DHT22;38310;52.796;6.942;2022-11-14T04:30:43;6.50;99.90
52381;DHT22;38310;52.796;6.942;2022-11-14T04:33:09;6.40;99.90
52381;DHT22;38310;52.796;6.942;2022-11-14T04:35:35;6.30;99.90
52381;DHT22;38310;52.796;6.942;2022-11-14T04:38:01;6.30;99.90
52381;DHT22;38310;52.796;6.942;2022-11-14T04:40:27;6.30;99.90
52381;DHT22;38310;52.796;6.942;2022-11-14T04:42:53;6.30;99.90
52381;DHT22;38310;52.796;6.942;2022-11-14T04:45:19;6.30;99.90
52381;DHT22;38310;52.796;6.942;2022-11-14T04:47:44;6.40;99.90
52381;DHT22;38310;52.796;6.942;2022-11-14T04:50:10;6.30;99.90
52381;DHT22;38310;52.796;6.942;2022-11-14T04:52:36;6.80;99.90
52381;DHT22;38310;52.796;6.942;2022-11-14T04:55:02;6.20;99.90
52381;DHT22;38310;52.796;6.942;2022-11-14T04:57:27;6.30;99.90
52381;DHT22;38310;52.796;6.942;2022-11-14T04:59:53;6.70;99.90
52381;DHT22;38310;52.796;6.942;2022-11-14T05:02:19;6.30;99.90
52381;DHT22;38310;52.796;6.942;2022-11-14T05:04:45;6.20;99.90
52381;DHT22;38310;52.796;6.942;2022-11-14T05:07:13;6.20;99.90
52381;DHT22;38310;52.796;6.942;2022-11-14T05:09:38;6.20;99.90
52381;DHT22;38310;52.796;6.942;2022-11-14T05:12:04;6.20;99.90
52381;DHT22;38310;52.796;6.942;2022-11-14T05:14:30;6.20;99.90
52381;DHT22;38310;52.796;6.942;2022-11-14T05:16:56;6.20;99.90
52381;DHT22;38310;52.796;6.942;2022-11-14T05:19:22;6.20;99.90
52381;DHT22;38310;52.796;6.942;2022-11-14T05:21:48;6.20;99.90
52381;DHT22;38310;52.796;6.942;2022-11-14T05:24:14;6.20;99.90
52381;DHT22;38310;52.796;6.942;2022-11-14T05:26:39;6.10;99.90
52381;DHT22;38310;52.796;6.942;2022-11-14T05:29:05;6.10;99.90
52381;DHT22;38310;52.796;6.942;2022-11-14T05:31:31;6.10;99.90
52381;DHT22;38310;52.796;6.942;2022-11-14T05:33:57;6.10;99.90
52381;DHT22;38310;52.796;6.942;2022-11-14T05:36:22;6.00;99.90
52381;DHT22;38310;52.796;6.942;2022-11-14T05:38:48;6.00;99.90
52381;DHT22;38310;52.796;6.942;2022-11-14T05:41:16;6.20;99.90
52381;DHT22;38310;52.796;6.942;2022-11-14T05:43:44;6.00;99.90
52381;DHT22;38310;52.796;6.942;2022-11-14T05:46:11;6.40;99.90
52381;DHT22;38310;52.796;6.942;2022-11-14T05:48:38;6.00;99.90
52381;DHT22;38310;52.796;6.942;2022-11-14T05:51:05;6.10;99.90
52381;DHT22;38310;52.796;6.942;2022-11-14T05:53:32;5.90;99.90
52381;DHT22;38310;52.796;6.942;2022-11-14T05:56:02;6.10;99.90
52381;DHT22;38310;52.796;6.942;2022-11-14T05:58:30;5.40;99.90
52381;DHT22;38310;52.796;6.942;2022-11-14T06:01:12;5.80;99.90
52381;DHT22;38310;52.796;6.942;2022-11-14T06:03:41;5.80;99.90
52381;DHT22;38310;52.796;6.942;2022-11-14T06:06:18;5.80;99.90
52381;DHT22;38310;52.796;6.942;2022-11-14T06:08:44;5.80;99.90
52381;DHT22;38310;52.796;6.942;2022-11-14T06:11:18;5.80;99.90
52381;DHT22;38310;52.796;6.942;2022-11-14T06:13:44;6.00;99.90
52381;DHT22;38310;52.796;6.942;2022-11-14T06:16:12;5.70;99.90
52381;DHT22;38310;52.796;6.942;2022-11-14T06:18:38;5.70;99.90
52381;DHT22;38310;52.796;6.942;2022-11-14T06:21:13;5.80;99.90
52381;DHT22;38310;52.796;6.942;2022-11-14T06:23:39;5.70;99.90
52381;DHT22;38310;52.796;6.942;2022-11-14T06:26:09;5.90;99.90
52381;DHT22;38310;52.796;6.942;2022-11-14T06:28:37;5.70;99.90
52381;DHT22;38310;52.796;6.942;2022-11-14T06:31:03;5.70;99.90
52381;DHT22;38310;52.796;6.942;2022-11-14T06:33:33;5.80;99.90
52381;DHT22;38310;52.796;6.942;2022-11-14T06:36:01;5.80;99.90
52381;DHT22;38310;52.796;6.942;2022-11-14T06:38:30;5.80;99.90
52381;DHT22;38310;52.796;6.942;2022-11-14T06:41:07;5.90;99.90
52381;DHT22;38310;52.796;6.942;2022-11-14T06:43:52;6.00;99.90
52381;DHT22;38310;52.796;6.942;2022-11-14T06:46:20;5.80;99.90
52381;DHT22;38310;52.796;6.942;2022-11-14T06:48:47;5.80;99.90
52381;DHT22;38310;52.796;6.942;2022-11-14T06:51:15;5.80;99.90
52381;DHT22;38310;52.796;6.942;2022-11-14T06:53:41;5.80;99.90
52381;DHT22;38310;52.796;6.942;2022-11-14T06:56:12;6.00;99.90
52381;DHT22;38310;52.796;6.942;2022-11-14T06:58:44;5.70;99.90
52381;DHT22;38310;52.796;6.942;2022-11-14T07:01:16;5.70;99.90
52381;DHT22;38310;52.796;6.942;2022-11-14T07:03:43;5.60;99.90
52381;DHT22;38310;52.796;6.942;2022-11-14T07:06:11;5.60;99.90
52381;DHT22;38310;52.796;6.942;2022-11-14T07:08:37;5.60;99.90
52381;DHT22;38310;52.796;6.942;2022-11-14T07:11:08;5.60;99.90
52381;DHT22;38310;52.796;6.942;2022-11-14T07:13:35;5.50;99.90
52381;DHT22;38310;52.796;6.942;2022-11-14T07:16:02;5.50;99.90
52381;DHT22;38310;52.796;6.942;2022-11-14T07:18:31;6.10;99.90
52381;DHT22;38310;52.796;6.942;2022-11-14T07:21:04;5.50;99.90
52381;DHT22;38310;52.796;6.942;2022-11-14T07:23:31;5.60;99.90
52381;DHT22;38310;52.796;6.942;2022-11-14T07:26:05;6.50;99.90
52381;DHT22;38310;52.796;6.942;2022-11-14T07:28:35;5.50;99.90
52381;DHT22;38310;52.796;6.942;2022-11-14T07:31:08;5.50;99.90
52381;DHT22;38310;52.796;6.942;2022-11-14T07:33:34;5.60;99.90
52381;DHT22;38310;52.796;6.942;2022-11-14T07:36:00;5.60;99.90
52381;DHT22;38310;52.796;6.942;2022-11-14T07:38:26;5.50;99.90
52381;DHT22;38310;52.796;6.942;2022-11-14T07:40:57;5.60;99.90
52381;DHT22;38310;52.796;6.942;2022-11-14T07:43:23;5.60;99.90
52381;DHT22;38310;52.796;6.942;2022-11-14T07:45:49;5.60;99.90
52381;DHT22;38310;52.796;6.942;2022-11-14T07:48:15;5.60;99.90
52381;DHT22;38310;52.796;6.942;2022-11-14T07:50:41;5.60;99.90
52381;DHT22;38310;52.796;6.942;2022-11-14T07:53:07;6.80;99.90
52381;DHT22;38310;52.796;6.942;2022-11-14T07:55:37;5.60;99.90
52381;DHT22;38310;52.796;6.942;2022-11-14T07:58:02;5.70;99.90
52381;DHT22;38310;52.796;6.942;2022-11-14T08:00:28;5.70;99.90
52381;DHT22;38310;52.796;6.942;2022-11-14T08:02:54;6.20;99.90
52381;DHT22;38310;52.796;6.942;2022-11-14T08:05:20;5.80;99.90
52381;DHT22;38310;52.796;6.942;2022-11-14T08:07:45;5.80;99.90
52381;DHT22;38310;52.796;6.942;2022-11-14T08:10:12;6.00;99.90
52381;DHT22;38310;52.796;6.942;2022-11-14T08:12:39;5.80;99.90
52381;DHT22;38310;52.796;6.942;2022-11-14T08:15:07;5.90;99.90
52381;DHT22;38310;52.796;6.942;2022-11-14T08:17:33;5.90;99.90
52381;DHT22;38310;52.796;6.942;2022-11-14T08:19:59;5.80;99.90
52381;DHT22;38310;52.796;6.942;2022-11-14T08:22:24;5.90;99.90
52381;DHT22;38310;52.796;6.942;2022-11-14T08:24:50;5.90;99.90
52381;DHT22;38310;52.796;6.942;2022-11-14T08:27:16;5.90;99.90
52381;DHT22;38310;52.796;6.942;2022-11-14T08:29:42;5.90;99.90
52381;DHT22;38310;52.796;6.942;2022-11-14T08:32:08;5.90;99.90
52381;DHT22;38310;52.796;6.942;2022-11-14T08:34:34;5.90;99.90
52381;DHT22;38310;52.796;6.942;2022-11-14T08:37:01;5.90;99.90
52381;DHT22;38310;52.796;6.942;2022-11-14T08:39:27;5.90;99.90
52381;DHT22;38310;52.796;6.942;2022-11-14T08:41:53;5.90;99.90
52381;DHT22;38310;52.796;6.942;2022-11-14T08:44:18;6.00;99.90
52381;DHT22;38310;52.796;6.942;2022-11-14T08:46:54;6.70;99.90
52381;DHT22;38310;52.796;6.942;2022-11-14T08:49:20;6.10;99.90
52381;DHT22;38310;52.796;6.942;2022-11-14T08:51:46;6.10;99.90
52381;DHT22;38310;52.796;6.942;2022-11-14T08:54:11;6.20;99.90
52381;DHT22;38310;52.796;6.942;2022-11-14T08:56:37;6.20;99.90
52381;DHT22;38310;52.796;6.942;2022-11-14T08:59:04;6.30;99.90
52381;DHT22;38310;52.796;6.942;2022-11-14T09:01:30;6.30;99.90
52381;DHT22;38310;52.796;6.942;2022-11-14T09:03:58;6.40;99.90
52381;DHT22;38310;52.796;6.942;2022-11-14T09:06:24;6.40;99.90
52381;DHT22;38310;52.796;6.942;2022-11-14T09:08:49;6.50;99.90
52381;DHT22;38310;52.796;6.942;2022-11-14T09:11:15;6.50;99.90
52381;DHT22;38310;52.796;6.942;2022-11-14T09:13:41;6.80;99.90
52381;DHT22;38310;52.796;6.942;2022-11-14T09:16:07;6.50;99.90
52381;DHT22;38310;52.796;6.942;2022-11-14T09:18:32;6.60;99.90
52381;DHT22;38310;52.796;6.942;2022-11-14T09:21:03;6.60;99.90
52381;DHT22;38310;52.796;6.942;2022-11-14T09:23:29;6.60;99.90
52381;DHT22;38310;52.796;6.942;2022-11-14T09:25:55;6.70;99.90
52381;DHT22;38310;52.796;6.942;2022-11-14T09:28:22;6.70;99.90
52381;DHT22;38310;52.796;6.942;2022-11-14T09:30:48;6.70;99.90
52381;DHT22;38310;52.796;6.942;2022-11-14T09:33:14;6.70;99.90
52381;DHT22;38310;52.796;6.942;2022-11-14T09:35:40;6.90;99.90
52381;DHT22;38310;52.796;6.942;2022-11-14T09:38:08;6.80;99.90
52381;DHT22;38310;52.796;6.942;2022-11-14T09:40:56;7.00;99.90
52381;DHT22;38310;52.796;6.942;2022-11-14T09:46:25;7.10;99.90
52381;DHT22;38310;52.796;6.942;2022-11-14T09:48:52;7.10;99.90
52381;DHT22;38310;52.796;6.942;2022-11-14T09:51:38;7.70;99.90
52381;DHT22;38310;52.796;6.942;2022-11-14T09:59:49;7.20;99.90
52381;DHT22;38310;52.796;6.942;2022-11-14T10:08:27;7.40;99.90
52381;DHT22;38310;52.796;6.942;2022-11-14T10:11:24;7.40;99.90
52381;DHT22;38310;52.796;6.942;2022-11-14T10:14:22;8.20;99.90
52381;DHT22;38310;52.796;6.942;2022-11-14T10:20:17;7.40;99.90
52381;DHT22;38310;52.796;6.942;2022-11-14T10:22:59;7.50;99.90
52381;DHT22;38310;52.796;6.942;2022-11-14T10:26:06;7.40;99.90
52381;DHT22;38310;52.796;6.942;2022-11-14T10:34:23;7.40;99.90
52381;DHT22;38310;52.796;6.942;2022-11-14T10:39:54;7.50;99.90
52381;DHT22;38310;52.796;6.942;2022-11-14T10:42:31;7.70;99.90
52381;DHT22;38310;52.796;6.942;2022-11-14T10:47:56;8.10;99.90
52381;DHT22;38310;52.796;6.942;2022-11-14T10:50:47;8.00;99.90
52381;DHT22;38310;52.796;6.942;2022-11-14T10:55:57;8.30;99.90
52381;DHT22;38310;52.796;6.942;2022-11-14T10:58:23;8.50;99.90
52381;DHT22;38310;52.796;6.942;2022-11-14T11:00:49;8.70;99.90
52381;DHT22;38310;52.796;6.942;2022-11-14T11:03:15;8.90;99.90
52381;DHT22;38310;52.796;6.942;2022-11-14T11:05:47;9.10;99.90
52381;DHT22;38310;52.796;6.942;2022-11-14T11:08:18;9.20;99.90
52381;DHT22;38310;52.796;6.942;2022-11-14T11:11:03;9.40;99.90
52381;DHT22;38310;52.796;6.942;2022-11-14T11:13:53;9.60;99.90
52381;DHT22;38310;52.796;6.942;2022-11-14T11:16:25;9.90;99.90
52381;DHT22;38310;52.796;6.942;2022-11-14T11:18:51;9.90;99.90
52381;DHT22;38310;52.796;6.942;2022-11-14T11:21:19;10.40;99.90
52381;DHT22;38310;52.796;6.942;2022-11-14T11:23:53;10.60;99.90
52381;DHT22;38310;52.796;6.942;2022-11-14T11:26:29;10.90;99.90
52381;DHT22;38310;52.796;6.942;2022-11-14T11:31:53;11.20;99.90
52381;DHT22;38310;52.796;6.942;2022-11-14T11:34:28;11.20;99.90
52381;DHT22;38310;52.796;6.942;2022-11-14T11:37:04;11.30;99.90
52381;DHT22;38310;52.796;6.942;2022-11-14T11:39:40;11.60;99.90
52381;DHT22;38310;52.796;6.942;2022-11-14T11:42:15;11.80;99.90
52381;DHT22;38310;52.796;6.942;2022-11-14T11:44:46;11.70;99.90
52381;DHT22;38310;52.796;6.942;2022-11-14T11:47:16;12.40;99.90
52381;DHT22;38310;52.796;6.942;2022-11-14T11:52:35;12.80;99.90
52381;DHT22;38310;52.796;6.942;2022-11-14T11:55:47;13.00;99.90
52381;DHT22;38310;52.796;6.942;2022-11-14T11:58:28;13.40;99.90
52381;DHT22;38310;52.796;6.942;2022-11-14T12:00:55;13.80;99.90
52381;DHT22;38310;52.796;6.942;2022-11-14T12:03:23;13.30;99.90
52381;DHT22;38310;52.796;6.942;2022-11-14T12:11:33;14.20;99.90
52381;DHT22;38310;52.796;6.942;2022-11-14T12:14:04;14.80;99.90
52381;DHT22;38310;52.796;6.942;2022-11-14T12:25:03;15.40;99.90
52381;DHT22;38310;52.796;6.942;2022-11-14T12:32:42;15.00;99.90
52381;DHT22;38310;52.796;6.942;2022-11-14T12:35:17;15.30;99.90
52381;DHT22;38310;52.796;6.942;2022-11-14T12:37:46;14.80;99.90
52381;DHT22;38310;52.796;6.942;2022-11-14T12:40:26;15.30;99.90
52381;DHT22;38310;52.796;6.942;2022-11-14T12:42:53;15.10;99.90
52381;DHT22;38310;52.796;6.942;2022-11-14T12:50:48;14.70;99.90
52381;DHT22;38310;52.796;6.942;2022-11-14T13:01:30;16.30;99.90
52381;DHT22;38310;52.796;6.942;2022-11-14T13:12:57;15.00;99.90
52381;DHT22;38310;52.796;6.942;2022-11-14T13:15:54;15.50;99.90
52381;DHT22;38310;52.796;6.942;2022-11-14T13:27:34;14.30;99.90
52381;DHT22;38310;52.796;6.942;2022-11-14T13:30:04;14.00;99.90
52381;DHT22;38310;52.796;6.942;2022-11-14T13:51:43;14.70;99.90
52381;DHT22;38310;52.796;6.942;2022-11-14T13:54:14;15.10;99.90
52381;DHT22;38310;52.796;6.942;2022-11-14T13:57:07;14.00;99.90
52381;DHT22;38310;52.796;6.942;2022-11-14T13:59:50;14.40;99.90
52381;DHT22;38310;52.796;6.942;2022-11-14T14:14:04;13.30;99.90
52381;DHT22;38310;52.796;6.942;2022-11-14T14:16:59;13.50;99.90
52381;DHT22;38310;52.796;6.942;2022-11-14T14:19:42;13.00;99.90
52381;DHT22;38310;52.796;6.942;2022-11-14T14:22:26;13.30;99.90
52381;DHT22;38310;52.796;6.942;2022-11-14T14:30:17;12.40;99.90
52381;DHT22;38310;52.796;6.942;2022-11-14T14:35:34;12.00;99.90
52381;DHT22;38310;52.796;6.942;2022-11-14T14:38:00;11.90;99.90
52381;DHT22;38310;52.796;6.942;2022-11-14T14:40:34;11.50;99.90
52381;DHT22;38310;52.796;6.942;2022-11-14T14:43:02;11.40;99.90
52381;DHT22;38310;52.796;6.942;2022-11-14T14:45:29;11.30;99.90
52381;DHT22;38310;52.796;6.942;2022-11-14T14:48:04;11.10;99.90
52381;DHT22;38310;52.796;6.942;2022-11-14T14:50:36;11.00;99.90
52381;DHT22;38310;52.796;6.942;2022-11-14T14:53:03;10.90;99.90
52381;DHT22;38310;52.796;6.942;2022-11-14T14:55:32;10.70;99.90
52381;DHT22;38310;52.796;6.942;2022-11-14T15:00:55;10.50;99.90
52381;DHT22;38310;52.796;6.942;2022-11-14T15:03:45;10.40;99.90
52381;DHT22;38310;52.796;6.942;2022-11-14T15:08:59;10.30;99.90
52381;DHT22;38310;52.796;6.942;2022-11-14T15:11:27;10.30;99.90
52381;DHT22;38310;52.796;6.942;2022-11-14T15:13:56;10.10;99.90
52381;DHT22;38310;52.796;6.942;2022-11-14T15:16:24;10.00;99.90
52381;DHT22;38310;52.796;6.942;2022-11-14T15:18:51;9.90;99.90
52381;DHT22;38310;52.796;6.942;2022-11-14T15:24:12;9.70;99.90
52381;DHT22;38310;52.796;6.942;2022-11-14T15:26:39;9.70;99.90
52381;DHT22;38310;52.796;6.942;2022-11-14T15:29:16;9.60;99.90
52381;DHT22;38310;52.796;6.942;2022-11-14T15:31:54;9.50;99.90
52381;DHT22;38310;52.796;6.942;2022-11-14T15:34:36;9.50;99.90
52381;DHT22;38310;52.796;6.942;2022-11-14T15:39:44;9.40;99.90
52381;DHT22;38310;52.796;6.942;2022-11-14T15:44:48;9.30;99.90
52381;DHT22;38310;52.796;6.942;2022-11-14T15:47:28;9.30;99.90
52381;DHT22;38310;52.796;6.942;2022-11-14T15:49:59;8.90;99.90
52381;DHT22;38310;52.796;6.942;2022-11-14T15:52:56;9.30;99.90
52381;DHT22;38310;52.796;6.942;2022-11-14T15:55:34;9.30;99.90
52381;DHT22;38310;52.796;6.942;2022-11-14T15:58:00;9.30;99.90
52381;DHT22;38310;52.796;6.942;2022-11-14T16:00:25;9.20;99.90
52381;DHT22;38310;52.796;6.942;2022-11-14T16:02:56;9.20;99.90
52381;DHT22;38310;52.796;6.942;2022-11-14T16:05:29;9.20;99.90
52381;DHT22;38310;52.796;6.942;2022-11-14T16:07:56;9.20;99.90
52381;DHT22;38310;52.796;6.942;2022-11-14T16:10:24;9.20;99.90
52381;DHT22;38310;52.796;6.942;2022-11-14T16:12:50;9.20;99.90
52381;DHT22;38310;52.796;6.942;2022-11-14T16:15:16;9.20;99.90
52381;DHT22;38310;52.796;6.942;2022-11-14T16:17:45;9.20;99.90
52381;DHT22;38310;52.796;6.942;2022-11-14T16:20:23;9.20;99.90
52381;DHT22;38310;52.796;6.942;2022-11-14T16:22:50;8.40;99.90
52381;DHT22;38310;52.796;6.942;2022-11-14T16:25:20;9.10;99.90
52381;DHT22;38310;52.796;6.942;2022-11-14T16:27:47;9.10;99.90
52381;DHT22;38310;52.796;6.942;2022-11-14T16:30:15;8.90;99.90
52381;DHT22;38310;52.796;6.942;2022-11-14T16:32:43;8.90;99.90
52381;DHT22;38310;52.796;6.942;2022-11-14T16:37:42;8.70;99.90
52381;DHT22;38310;52.796;6.942;2022-11-14T16:40:24;8.60;99.90
52381;DHT22;38310;52.796;6.942;2022-11-14T16:42:56;8.50;99.90
52381;DHT22;38310;52.796;6.942;2022-11-14T16:45:23;8.40;99.90
52381;DHT22;38310;52.796;6.942;2022-11-14T16:47:50;8.30;99.90
52381;DHT22;38310;52.796;6.942;2022-11-14T16:50:17;8.20;99.90
52381;DHT22;38310;52.796;6.942;2022-11-14T16:52:43;8.10;99.90
52381;DHT22;38310;52.796;6.942;2022-11-14T16:55:10;8.00;99.90
52381;DHT22;38310;52.796;6.942;2022-11-14T16:57:36;7.90;99.90
52381;DHT22;38310;52.796;6.942;2022-11-14T17:00:07;7.50;99.90
52381;DHT22;38310;52.796;6.942;2022-11-14T17:02:34;7.70;99.90
52381;DHT22;38310;52.796;6.942;2022-11-14T17:04:59;7.70;99.90
52381;DHT22;38310;52.796;6.942;2022-11-14T17:07:25;7.60;99.90
52381;DHT22;38310;52.796;6.942;2022-11-14T17:09:55;7.50;99.90
52381;DHT22;38310;52.796;6.942;2022-11-14T17:12:20;8.20;99.90
52381;DHT22;38310;52.796;6.942;2022-11-14T17:14:46;7.50;99.90
52381;DHT22;38310;52.796;6.942;2022-11-14T17:17:12;7.40;99.90
52381;DHT22;38310;52.796;6.942;2022-11-14T17:19:37;7.40;99.90
52381;DHT22;38310;52.796;6.942;2022-11-14T17:22:10;7.40;99.90
52381;DHT22;38310;52.796;6.942;2022-11-14T17:24:37;7.40;99.90
52381;DHT22;38310;52.796;6.942;2022-11-14T17:27:02;7.50;99.90
52381;DHT22;38310;52.796;6.942;2022-11-14T17:29:28;7.30;99.90
52381;DHT22;38310;52.796;6.942;2022-11-14T17:31:54;7.40;99.90
52381;DHT22;38310;52.796;6.942;2022-11-14T17:34:19;7.20;99.90
52381;DHT22;38310;52.796;6.942;2022-11-14T17:36:45;7.20;99.90
52381;DHT22;38310;52.796;6.942;2022-11-14T17:39:11;7.20;99.90
52381;DHT22;38310;52.796;6.942;2022-11-14T17:41:36;7.30;99.90
52381;DHT22;38310;52.796;6.942;2022-11-14T17:44:03;7.30;99.90
52381;DHT22;38310;52.796;6.942;2022-11-14T17:46:30;7.70;99.90
52381;DHT22;38310;52.796;6.942;2022-11-14T17:48:56;7.30;99.90
52381;DHT22;38310;52.796;6.942;2022-11-14T17:51:22;7.30;99.90
52381;DHT22;38310;52.796;6.942;2022-11-14T17:53:50;7.60;99.90
52381;DHT22;38310;52.796;6.942;2022-11-14T17:56:19;8.30;99.90
52381;DHT22;38310;52.796;6.942;2022-11-14T17:58:46;7.30;99.90
52381;DHT22;38310;52.796;6.942;2022-11-14T18:01:18;7.30;99.90
52381;DHT22;38310;52.796;6.942;2022-11-14T18:03:44;7.30;99.90
52381;DHT22;38310;52.796;6.942;2022-11-14T18:06:12;7.40;99.90
52381;DHT22;38310;52.796;6.942;2022-11-14T18:08:38;7.40;99.90
52381;DHT22;38310;52.796;6.942;2022-11-14T18:11:06;7.30;99.90
52381;DHT22;38310;52.796;6.942;2022-11-14T18:13:32;7.40;99.90
52381;DHT22;38310;52.796;6.942;2022-11-14T18:16:02;8.00;99.90
52381;DHT22;38310;52.796;6.942;2022-11-14T18:18:32;7.40;99.90
52381;DHT22;38310;52.796;6.942;2022-11-14T18:21:05;7.40;99.90
52381;DHT22;38310;52.796;6.942;2022-11-14T18:23:31;7.50;99.90